sensor_id;sensor_type;location;lat;lon;timestamp;P1;durP1;ratioP1;P2;durP2;ratioP2
42724;SDS011;28369;44.046;23.014;2022-08-25T00:00:14;17.98;;;10.02;;
42724;SDS011;28369;44.046;23.014;2022-08-25T00:02:40;16.40;;;10.02;;
42724;SDS011;28369;44.046;23.014;2022-08-25T00:05:05;17.08;;;10.13;;
42724;SDS011;28369;44.046;23.014;2022-08-25T00:07:31;19.23;;;9.13;;
42724;SDS011;28369;44.046;23.014;2022-08-25T00:09:57;20.85;;;10.15;;
42724;SDS011;28369;44.046;23.014;2022-08-25T00:12:23;19.08;;;9.45;;
42724;SDS011;28369;44.046;23.014;2022-08-25T00:14:48;17.05;;;9.98;;
42724;SDS011;28369;44.046;23.014;2022-08-25T00:17:14;19.00;;;9.73;;
42724;SDS011;28369;44.046;23.014;2022-08-25T00:19:39;14.75;;;9.82;;
42724;SDS011;28369;44.046;23.014;2022-08-25T00:22:05;22.35;;;10.13;;
42724;SDS011;28369;44.046;23.014;2022-08-25T00:24:31;20.42;;;9.98;;
42724;SDS011;28369;44.046;23.014;2022-08-25T00:26:57;19.35;;;10.30;;
42724;SDS011;28369;44.046;23.014;2022-08-25T00:29:24;14.30;;;9.38;;
42724;SDS011;28369;44.046;23.014;2022-08-25T00:31:50;18.02;;;10.38;;
42724;SDS011;28369;44.046;23.014;2022-08-25T00:34:18;19.45;;;10.93;;
42724;SDS011;28369;44.046;23.014;2022-08-25T00:36:48;16.58;;;10.50;;
42724;SDS011;28369;44.046;23.014;2022-08-25T00:39:16;17.73;;;10.98;;
42724;SDS011;28369;44.046;23.014;2022-08-25T00:41:42;15.25;;;10.68;;
42724;SDS011;28369;44.046;23.014;2022-08-25T00:44:09;16.73;;;11.30;;
42724;SDS011;28369;44.046;23.014;2022-08-25T00:46:45;18.37;;;11.80;;
42724;SDS011;28369;44.046;23.014;2022-08-25T00:49:15;17.85;;;11.20;;
42724;SDS011;28369;44.046;23.014;2022-08-25T00:54:17;16.40;;;11.02;;
42724;SDS011;28369;44.046;23.014;2022-08-25T00:56:46;18.63;;;11.63;;
42724;SDS011;28369;44.046;23.014;2022-08-25T00:59:13;20.30;;;12.35;;
42724;SDS011;28369;44.046;23.014;2022-08-25T01:01:41;18.02;;;11.93;;
42724;SDS011;28369;44.046;23.014;2022-08-25T01:04:06;20.73;;;12.95;;
42724;SDS011;28369;44.046;23.014;2022-08-25T01:06:33;15.45;;;12.15;;
42724;SDS011;28369;44.046;23.014;2022-08-25T01:09:01;19.85;;;12.10;;
42724;SDS011;28369;44.046;23.014;2022-08-25T01:11:27;20.08;;;12.75;;
42724;SDS011;28369;44.046;23.014;2022-08-25T01:13:53;21.92;;;12.68;;
42724;SDS011;28369;44.046;23.014;2022-08-25T01:16:21;23.13;;;12.93;;
42724;SDS011;28369;44.046;23.014;2022-08-25T01:18:48;20.67;;;12.73;;
42724;SDS011;28369;44.046;23.014;2022-08-25T01:21:16;15.27;;;13.15;;
42724;SDS011;28369;44.046;23.014;2022-08-25T01:23:43;25.48;;;13.88;;
42724;SDS011;28369;44.046;23.014;2022-08-25T01:28:35;22.20;;;12.73;;
42724;SDS011;28369;44.046;23.014;2022-08-25T01:31:02;17.38;;;12.70;;
42724;SDS011;28369;44.046;23.014;2022-08-25T01:33:29;20.15;;;13.13;;
42724;SDS011;28369;44.046;23.014;2022-08-25T01:35:55;21.35;;;12.75;;
42724;SDS011;28369;44.046;23.014;2022-08-25T01:38:20;16.80;;;12.52;;
42724;SDS011;28369;44.046;23.014;2022-08-25T01:40:46;21.23;;;12.77;;
42724;SDS011;28369;44.046;23.014;2022-08-25T01:45:43;22.10;;;12.60;;
42724;SDS011;28369;44.046;23.014;2022-08-25T01:48:10;21.50;;;13.82;;
42724;SDS011;28369;44.046;23.014;2022-08-25T01:50:37;24.23;;;14.50;;
42724;SDS011;28369;44.046;23.014;2022-08-25T01:53:23;26.00;;;14.75;;
42724;SDS011;28369;44.046;23.014;2022-08-25T01:55:51;23.48;;;15.13;;
42724;SDS011;28369;44.046;23.014;2022-08-25T01:58:20;23.13;;;16.10;;
42724;SDS011;28369;44.046;23.014;2022-08-25T02:00:47;24.48;;;17.13;;
42724;SDS011;28369;44.046;23.014;2022-08-25T02:03:14;22.73;;;15.48;;
42724;SDS011;28369;44.046;23.014;2022-08-25T02:05:39;22.70;;;15.57;;
42724;SDS011;28369;44.046;23.014;2022-08-25T02:08:05;24.23;;;14.32;;
42724;SDS011;28369;44.046;23.014;2022-08-25T02:10:31;19.02;;;13.30;;
42724;SDS011;28369;44.046;23.014;2022-08-25T02:12:57;16.10;;;14.43;;
42724;SDS011;28369;44.046;23.014;2022-08-25T02:15:23;21.00;;;15.32;;
42724;SDS011;28369;44.046;23.014;2022-08-25T02:17:49;18.95;;;14.63;;
42724;SDS011;28369;44.046;23.014;2022-08-25T02:20:14;24.60;;;14.70;;
42724;SDS011;28369;44.046;23.014;2022-08-25T02:22:40;22.10;;;14.43;;
42724;SDS011;28369;44.046;23.014;2022-08-25T02:25:05;20.05;;;14.18;;
42724;SDS011;28369;44.046;23.014;2022-08-25T02:27:31;18.95;;;15.05;;
42724;SDS011;28369;44.046;23.014;2022-08-25T02:29:56;18.23;;;13.95;;
42724;SDS011;28369;44.046;23.014;2022-08-25T02:32:22;18.13;;;14.25;;
42724;SDS011;28369;44.046;23.014;2022-08-25T02:34:48;21.38;;;14.55;;
42724;SDS011;28369;44.046;23.014;2022-08-25T02:37:13;17.63;;;14.02;;
42724;SDS011;28369;44.046;23.014;2022-08-25T02:39:39;23.00;;;13.95;;
42724;SDS011;28369;44.046;23.014;2022-08-25T02:42:04;22.92;;;13.10;;
42724;SDS011;28369;44.046;23.014;2022-08-25T02:44:30;14.63;;;12.25;;
42724;SDS011;28369;44.046;23.014;2022-08-25T02:46:56;20.13;;;12.50;;
42724;SDS011;28369;44.046;23.014;2022-08-25T02:49:22;19.98;;;13.15;;
42724;SDS011;28369;44.046;23.014;2022-08-25T02:51:48;20.38;;;12.45;;
42724;SDS011;28369;44.046;23.014;2022-08-25T02:54:13;17.23;;;12.35;;
42724;SDS011;28369;44.046;23.014;2022-08-25T02:56:40;18.83;;;12.27;;
42724;SDS011;28369;44.046;23.014;2022-08-25T02:59:06;18.00;;;12.90;;
42724;SDS011;28369;44.046;23.014;2022-08-25T03:01:33;24.25;;;13.85;;
42724;SDS011;28369;44.046;23.014;2022-08-25T03:03:59;20.05;;;14.43;;
42724;SDS011;28369;44.046;23.014;2022-08-25T03:06:25;19.88;;;14.15;;
42724;SDS011;28369;44.046;23.014;2022-08-25T03:08:52;22.30;;;14.95;;
42724;SDS011;28369;44.046;23.014;2022-08-25T03:11:18;21.65;;;16.10;;
42724;SDS011;28369;44.046;23.014;2022-08-25T03:13:44;27.67;;;16.98;;
42724;SDS011;28369;44.046;23.014;2022-08-25T03:16:10;26.75;;;19.00;;
42724;SDS011;28369;44.046;23.014;2022-08-25T03:18:36;27.27;;;19.48;;
42724;SDS011;28369;44.046;23.014;2022-08-25T03:21:01;25.08;;;19.95;;
42724;SDS011;28369;44.046;23.014;2022-08-25T03:23:27;23.63;;;19.40;;
42724;SDS011;28369;44.046;23.014;2022-08-25T03:25:53;21.33;;;18.40;;
42724;SDS011;28369;44.046;23.014;2022-08-25T03:28:39;24.40;;;16.52;;
42724;SDS011;28369;44.046;23.014;2022-08-25T03:31:05;24.23;;;17.70;;
42724;SDS011;28369;44.046;23.014;2022-08-25T03:33:31;19.27;;;16.95;;
42724;SDS011;28369;44.046;23.014;2022-08-25T03:35:57;21.10;;;17.52;;
42724;SDS011;28369;44.046;23.014;2022-08-25T03:38:23;27.80;;;17.23;;
42724;SDS011;28369;44.046;23.014;2022-08-25T03:40:50;22.70;;;16.63;;
42724;SDS011;28369;44.046;23.014;2022-08-25T03:43:16;23.45;;;15.93;;
42724;SDS011;28369;44.046;23.014;2022-08-25T03:45:42;22.45;;;15.40;;
42724;SDS011;28369;44.046;23.014;2022-08-25T03:48:10;18.55;;;15.35;;
42724;SDS011;28369;44.046;23.014;2022-08-25T03:50:35;21.98;;;15.27;;
42724;SDS011;28369;44.046;23.014;2022-08-25T03:53:01;21.77;;;15.52;;
42724;SDS011;28369;44.046;23.014;2022-08-25T03:55:27;19.75;;;14.95;;
42724;SDS011;28369;44.046;23.014;2022-08-25T03:57:52;24.02;;;15.02;;
42724;SDS011;28369;44.046;23.014;2022-08-25T04:00:19;19.63;;;14.45;;
42724;SDS011;28369;44.046;23.014;2022-08-25T04:02:46;20.20;;;14.30;;
42724;SDS011;28369;44.046;23.014;2022-08-25T04:05:12;17.13;;;14.18;;
42724;SDS011;28369;44.046;23.014;2022-08-25T04:07:38;24.23;;;14.77;;
42724;SDS011;28369;44.046;23.014;2022-08-25T04:10:04;16.10;;;13.02;;
42724;SDS011;28369;44.046;23.014;2022-08-25T04:12:31;21.73;;;12.93;;
42724;SDS011;28369;44.046;23.014;2022-08-25T04:14:57;16.10;;;12.82;;
42724;SDS011;28369;44.046;23.014;2022-08-25T04:17:23;15.73;;;12.23;;
42724;SDS011;28369;44.046;23.014;2022-08-25T04:19:49;15.98;;;12.13;;
42724;SDS011;28369;44.046;23.014;2022-08-25T04:22:15;18.70;;;11.82;;
42724;SDS011;28369;44.046;23.014;2022-08-25T04:24:41;13.15;;;11.25;;
42724;SDS011;28369;44.046;23.014;2022-08-25T04:27:06;19.48;;;11.35;;
42724;SDS011;28369;44.046;23.014;2022-08-25T04:29:32;19.58;;;11.23;;
42724;SDS011;28369;44.046;23.014;2022-08-25T04:31:57;15.18;;;10.57;;
42724;SDS011;28369;44.046;23.014;2022-08-25T04:34:24;14.15;;;10.48;;
42724;SDS011;28369;44.046;23.014;2022-08-25T04:36:50;19.20;;;10.98;;
42724;SDS011;28369;44.046;23.014;2022-08-25T04:39:16;17.77;;;10.65;;
42724;SDS011;28369;44.046;23.014;2022-08-25T04:41:44;18.90;;;10.70;;
42724;SDS011;28369;44.046;23.014;2022-08-25T04:44:14;17.73;;;10.10;;
42724;SDS011;28369;44.046;23.014;2022-08-25T04:46:40;16.23;;;9.88;;
42724;SDS011;28369;44.046;23.014;2022-08-25T04:49:05;14.13;;;10.07;;
42724;SDS011;28369;44.046;23.014;2022-08-25T04:51:32;15.05;;;9.25;;
42724;SDS011;28369;44.046;23.014;2022-08-25T04:54:00;25.85;;;10.73;;
42724;SDS011;28369;44.046;23.014;2022-08-25T04:56:29;16.90;;;9.65;;
42724;SDS011;28369;44.046;23.014;2022-08-25T04:59:03;13.70;;;9.53;;
42724;SDS011;28369;44.046;23.014;2022-08-25T05:01:31;15.77;;;9.55;;
42724;SDS011;28369;44.046;23.014;2022-08-25T05:03:59;16.10;;;9.75;;
42724;SDS011;28369;44.046;23.014;2022-08-25T05:06:28;13.63;;;9.45;;
42724;SDS011;28369;44.046;23.014;2022-08-25T05:08:55;14.85;;;9.35;;
42724;SDS011;28369;44.046;23.014;2022-08-25T05:11:21;13.48;;;9.55;;
42724;SDS011;28369;44.046;23.014;2022-08-25T05:13:49;16.40;;;10.10;;
42724;SDS011;28369;44.046;23.014;2022-08-25T05:16:16;14.50;;;9.57;;
42724;SDS011;28369;44.046;23.014;2022-08-25T05:18:42;14.65;;;9.90;;
42724;SDS011;28369;44.046;23.014;2022-08-25T05:21:10;16.42;;;9.80;;
42724;SDS011;28369;44.046;23.014;2022-08-25T05:23:38;14.23;;;10.68;;
42724;SDS011;28369;44.046;23.014;2022-08-25T05:26:04;14.63;;;10.88;;
42724;SDS011;28369;44.046;23.014;2022-08-25T05:28:35;13.77;;;10.02;;
42724;SDS011;28369;44.046;23.014;2022-08-25T05:31:01;17.67;;;10.55;;
42724;SDS011;28369;44.046;23.014;2022-08-25T05:33:27;21.05;;;11.70;;
42724;SDS011;28369;44.046;23.014;2022-08-25T05:35:53;18.40;;;11.13;;
42724;SDS011;28369;44.046;23.014;2022-08-25T05:38:19;13.00;;;10.40;;
42724;SDS011;28369;44.046;23.014;2022-08-25T05:40:45;15.70;;;10.95;;
42724;SDS011;28369;44.046;23.014;2022-08-25T05:43:10;14.73;;;9.48;;
42724;SDS011;28369;44.046;23.014;2022-08-25T05:45:38;20.60;;;10.35;;
42724;SDS011;28369;44.046;23.014;2022-08-25T05:48:04;16.33;;;10.82;;
42724;SDS011;28369;44.046;23.014;2022-08-25T05:50:30;13.90;;;9.88;;
42724;SDS011;28369;44.046;23.014;2022-08-25T05:52:56;16.20;;;9.63;;
42724;SDS011;28369;44.046;23.014;2022-08-25T05:55:21;14.20;;;8.60;;
42724;SDS011;28369;44.046;23.014;2022-08-25T05:57:47;16.20;;;9.55;;
42724;SDS011;28369;44.046;23.014;2022-08-25T06:00:13;14.18;;;9.38;;
42724;SDS011;28369;44.046;23.014;2022-08-25T06:02:38;13.80;;;9.13;;
42724;SDS011;28369;44.046;23.014;2022-08-25T06:05:13;12.10;;;8.27;;
42724;SDS011;28369;44.046;23.014;2022-08-25T06:07:49;14.20;;;7.87;;
42724;SDS011;28369;44.046;23.014;2022-08-25T06:10:17;20.23;;;9.02;;
42724;SDS011;28369;44.046;23.014;2022-08-25T06:12:44;12.35;;;8.52;;
42724;SDS011;28369;44.046;23.014;2022-08-25T06:15:11;17.13;;;9.57;;
42724;SDS011;28369;44.046;23.014;2022-08-25T06:17:42;13.77;;;8.85;;
42724;SDS011;28369;44.046;23.014;2022-08-25T06:20:09;11.27;;;8.43;;
42724;SDS011;28369;44.046;23.014;2022-08-25T06:22:37;19.33;;;8.63;;
42724;SDS011;28369;44.046;23.014;2022-08-25T06:25:05;22.25;;;8.70;;
42724;SDS011;28369;44.046;23.014;2022-08-25T06:27:34;10.32;;;7.72;;
42724;SDS011;28369;44.046;23.014;2022-08-25T06:30:00;19.35;;;7.70;;
42724;SDS011;28369;44.046;23.014;2022-08-25T06:32:32;11.13;;;7.00;;
42724;SDS011;28369;44.046;23.014;2022-08-25T06:35:00;11.15;;;7.03;;
42724;SDS011;28369;44.046;23.014;2022-08-25T06:37:26;12.57;;;6.78;;
42724;SDS011;28369;44.046;23.014;2022-08-25T06:39:52;16.83;;;7.25;;
42724;SDS011;28369;44.046;23.014;2022-08-25T06:42:17;21.15;;;6.38;;
42724;SDS011;28369;44.046;23.014;2022-08-25T06:44:43;11.95;;;6.10;;
42724;SDS011;28369;44.046;23.014;2022-08-25T06:47:09;12.07;;;5.65;;
42724;SDS011;28369;44.046;23.014;2022-08-25T06:49:34;12.63;;;4.60;;
42724;SDS011;28369;44.046;23.014;2022-08-25T06:52:00;12.43;;;4.65;;
42724;SDS011;28369;44.046;23.014;2022-08-25T06:54:26;14.48;;;5.03;;
42724;SDS011;28369;44.046;23.014;2022-08-25T06:56:51;8.10;;;4.28;;
42724;SDS011;28369;44.046;23.014;2022-08-25T06:59:17;10.30;;;4.82;;
42724;SDS011;28369;44.046;23.014;2022-08-25T07:01:42;11.10;;;4.75;;
42724;SDS011;28369;44.046;23.014;2022-08-25T07:04:09;18.00;;;4.93;;
42724;SDS011;28369;44.046;23.014;2022-08-25T07:06:35;14.63;;;5.13;;
42724;SDS011;28369;44.046;23.014;2022-08-25T07:09:05;16.02;;;4.75;;
42724;SDS011;28369;44.046;23.014;2022-08-25T07:11:33;10.93;;;4.15;;
42724;SDS011;28369;44.046;23.014;2022-08-25T07:14:02;13.93;;;5.00;;
42724;SDS011;28369;44.046;23.014;2022-08-25T07:16:30;13.50;;;4.25;;
42724;SDS011;28369;44.046;23.014;2022-08-25T07:18:57;16.02;;;4.22;;
42724;SDS011;28369;44.046;23.014;2022-08-25T07:21:24;10.45;;;4.30;;
42724;SDS011;28369;44.046;23.014;2022-08-25T07:23:50;11.02;;;4.60;;
42724;SDS011;28369;44.046;23.014;2022-08-25T07:26:21;15.38;;;4.57;;
42724;SDS011;28369;44.046;23.014;2022-08-25T07:28:48;17.25;;;5.00;;
42724;SDS011;28369;44.046;23.014;2022-08-25T07:31:14;11.43;;;4.90;;
42724;SDS011;28369;44.046;23.014;2022-08-25T07:33:40;21.98;;;5.22;;
42724;SDS011;28369;44.046;23.014;2022-08-25T07:36:25;14.30;;;4.82;;
42724;SDS011;28369;44.046;23.014;2022-08-25T07:38:50;21.05;;;4.45;;
42724;SDS011;28369;44.046;23.014;2022-08-25T07:41:16;18.42;;;4.53;;
42724;SDS011;28369;44.046;23.014;2022-08-25T07:43:42;14.75;;;4.53;;
42724;SDS011;28369;44.046;23.014;2022-08-25T07:46:08;14.27;;;4.88;;
42724;SDS011;28369;44.046;23.014;2022-08-25T07:48:34;15.07;;;4.70;;
42724;SDS011;28369;44.046;23.014;2022-08-25T07:51:04;15.85;;;5.20;;
42724;SDS011;28369;44.046;23.014;2022-08-25T07:53:32;16.20;;;4.90;;
42724;SDS011;28369;44.046;23.014;2022-08-25T07:55:57;17.35;;;4.65;;
42724;SDS011;28369;44.046;23.014;2022-08-25T07:58:23;15.07;;;4.50;;
42724;SDS011;28369;44.046;23.014;2022-08-25T08:00:48;18.58;;;4.57;;
42724;SDS011;28369;44.046;23.014;2022-08-25T08:03:17;18.55;;;4.88;;
42724;SDS011;28369;44.046;23.014;2022-08-25T08:05:43;13.73;;;4.55;;
42724;SDS011;28369;44.046;23.014;2022-08-25T08:08:09;17.42;;;4.25;;
42724;SDS011;28369;44.046;23.014;2022-08-25T08:10:37;19.90;;;4.82;;
42724;SDS011;28369;44.046;23.014;2022-08-25T08:13:03;31.52;;;4.45;;
42724;SDS011;28369;44.046;23.014;2022-08-25T08:15:29;22.02;;;5.28;;
42724;SDS011;28369;44.046;23.014;2022-08-25T08:17:55;25.13;;;4.82;;
42724;SDS011;28369;44.046;23.014;2022-08-25T08:20:20;25.67;;;5.13;;
42724;SDS011;28369;44.046;23.014;2022-08-25T08:22:46;29.02;;;5.45;;
42724;SDS011;28369;44.046;23.014;2022-08-25T08:25:11;30.52;;;5.03;;
42724;SDS011;28369;44.046;23.014;2022-08-25T08:27:37;17.02;;;4.25;;
42724;SDS011;28369;44.046;23.014;2022-08-25T08:30:03;22.70;;;4.55;;
42724;SDS011;28369;44.046;23.014;2022-08-25T08:32:30;25.75;;;4.80;;
42724;SDS011;28369;44.046;23.014;2022-08-25T08:34:55;24.10;;;4.35;;
42724;SDS011;28369;44.046;23.014;2022-08-25T08:37:21;19.15;;;4.30;;
42724;SDS011;28369;44.046;23.014;2022-08-25T08:39:47;18.30;;;4.15;;
42724;SDS011;28369;44.046;23.014;2022-08-25T08:48:08;33.92;;;4.82;;
42724;SDS011;28369;44.046;23.014;2022-08-25T08:55:57;26.58;;;4.93;;
42724;SDS011;28369;44.046;23.014;2022-08-25T09:01:15;29.17;;;5.03;;
42724;SDS011;28369;44.046;23.014;2022-08-25T09:04:04;16.95;;;4.07;;
42724;SDS011;28369;44.046;23.014;2022-08-25T09:06:40;29.45;;;4.80;;
42724;SDS011;28369;44.046;23.014;2022-08-25T09:09:11;26.90;;;4.55;;
42724;SDS011;28369;44.046;23.014;2022-08-25T09:12:00;19.90;;;5.05;;
42724;SDS011;28369;44.046;23.014;2022-08-25T09:17:37;29.17;;;4.97;;
42724;SDS011;28369;44.046;23.014;2022-08-25T09:33:45;32.58;;;4.70;;
42724;SDS011;28369;44.046;23.014;2022-08-25T09:36:11;27.00;;;4.65;;
42724;SDS011;28369;44.046;23.014;2022-08-25T09:38:37;30.23;;;4.03;;
42724;SDS011;28369;44.046;23.014;2022-08-25T09:41:03;33.95;;;4.82;;
42724;SDS011;28369;44.046;23.014;2022-08-25T09:48:26;32.95;;;4.63;;
42724;SDS011;28369;44.046;23.014;2022-08-25T09:50:53;33.70;;;4.97;;
42724;SDS011;28369;44.046;23.014;2022-08-25T09:53:26;32.08;;;4.68;;
42724;SDS011;28369;44.046;23.014;2022-08-25T09:56:00;26.17;;;4.10;;
42724;SDS011;28369;44.046;23.014;2022-08-25T09:58:29;26.55;;;4.07;;
42724;SDS011;28369;44.046;23.014;2022-08-25T10:00:59;26.08;;;4.80;;
42724;SDS011;28369;44.046;23.014;2022-08-25T10:03:25;27.58;;;4.70;;
42724;SDS011;28369;44.046;23.014;2022-08-25T10:08:36;34.28;;;4.50;;
42724;SDS011;28369;44.046;23.014;2022-08-25T10:11:11;31.30;;;4.85;;
42724;SDS011;28369;44.046;23.014;2022-08-25T10:13:48;28.25;;;4.20;;
42724;SDS011;28369;44.046;23.014;2022-08-25T10:16:29;37.95;;;4.88;;
42724;SDS011;28369;44.046;23.014;2022-08-25T10:21:35;30.30;;;4.68;;
42724;SDS011;28369;44.046;23.014;2022-08-25T10:24:02;28.67;;;3.95;;
42724;SDS011;28369;44.046;23.014;2022-08-25T10:30:08;36.13;;;4.75;;
42724;SDS011;28369;44.046;23.014;2022-08-25T10:35:19;45.63;;;5.43;;
42724;SDS011;28369;44.046;23.014;2022-08-25T10:43:48;34.22;;;4.68;;
42724;SDS011;28369;44.046;23.014;2022-08-25T10:46:36;28.90;;;4.60;;
42724;SDS011;28369;44.046;23.014;2022-08-25T10:49:18;30.65;;;4.93;;
42724;SDS011;28369;44.046;23.014;2022-08-25T11:16:12;29.17;;;5.25;;
42724;SDS011;28369;44.046;23.014;2022-08-25T11:18:45;33.47;;;5.22;;
42724;SDS011;28369;44.046;23.014;2022-08-25T11:24:12;20.35;;;3.63;;
42724;SDS011;28369;44.046;23.014;2022-08-25T11:27:05;29.65;;;4.45;;
42724;SDS011;28369;44.046;23.014;2022-08-25T11:29:37;34.30;;;4.75;;
42724;SDS011;28369;44.046;23.014;2022-08-25T11:32:05;29.58;;;4.38;;
42724;SDS011;28369;44.046;23.014;2022-08-25T11:34:32;32.10;;;5.15;;
42724;SDS011;28369;44.046;23.014;2022-08-25T11:37:02;38.55;;;5.47;;
42724;SDS011;28369;44.046;23.014;2022-08-25T11:42:50;26.20;;;4.88;;
42724;SDS011;28369;44.046;23.014;2022-08-25T11:48:21;27.80;;;3.88;;
42724;SDS011;28369;44.046;23.014;2022-08-25T11:51:04;40.25;;;4.60;;
42724;SDS011;28369;44.046;23.014;2022-08-25T11:56:03;32.60;;;4.78;;
42724;SDS011;28369;44.046;23.014;2022-08-25T11:58:33;27.85;;;4.47;;
42724;SDS011;28369;44.046;23.014;2022-08-25T12:01:04;30.38;;;4.03;;
42724;SDS011;28369;44.046;23.014;2022-08-25T12:06:32;40.92;;;4.97;;
42724;SDS011;28369;44.046;23.014;2022-08-25T12:32:46;65.43;;;8.23;;
42724;SDS011;28369;44.046;23.014;2022-08-25T12:38:15;27.85;;;4.50;;
42724;SDS011;28369;44.046;23.014;2022-08-25T12:45:44;41.08;;;5.45;;
42724;SDS011;28369;44.046;23.014;2022-08-25T12:50:55;41.03;;;5.60;;
42724;SDS011;28369;44.046;23.014;2022-08-25T12:53:30;39.30;;;4.47;;
42724;SDS011;28369;44.046;23.014;2022-08-25T12:56:06;36.90;;;5.22;;
42724;SDS011;28369;44.046;23.014;2022-08-25T12:58:49;38.00;;;5.15;;
42724;SDS011;28369;44.046;23.014;2022-08-25T13:07:07;47.08;;;4.78;;
42724;SDS011;28369;44.046;23.014;2022-08-25T13:12:15;33.55;;;5.32;;
42724;SDS011;28369;44.046;23.014;2022-08-25T13:14:59;51.38;;;5.38;;
42724;SDS011;28369;44.046;23.014;2022-08-25T13:17:29;43.47;;;5.07;;
42724;SDS011;28369;44.046;23.014;2022-08-25T13:22:58;42.72;;;5.00;;
42724;SDS011;28369;44.046;23.014;2022-08-25T13:25:25;44.22;;;5.15;;
42724;SDS011;28369;44.046;23.014;2022-08-25T13:27:56;37.83;;;5.30;;
42724;SDS011;28369;44.046;23.014;2022-08-25T13:32:49;49.60;;;4.88;;
42724;SDS011;28369;44.046;23.014;2022-08-25T13:35:19;39.20;;;5.55;;
42724;SDS011;28369;44.046;23.014;2022-08-25T13:37:48;48.00;;;6.10;;
42724;SDS011;28369;44.046;23.014;2022-08-25T13:40:27;60.67;;;5.57;;
42724;SDS011;28369;44.046;23.014;2022-08-25T13:42:58;45.45;;;5.72;;
42724;SDS011;28369;44.046;23.014;2022-08-25T13:45:27;58.72;;;6.88;;
42724;SDS011;28369;44.046;23.014;2022-08-25T13:47:54;50.88;;;5.40;;
42724;SDS011;28369;44.046;23.014;2022-08-25T13:50:21;45.42;;;6.13;;
42724;SDS011;28369;44.046;23.014;2022-08-25T13:55:56;45.75;;;4.93;;
42724;SDS011;28369;44.046;23.014;2022-08-25T13:58:29;47.88;;;5.10;;
42724;SDS011;28369;44.046;23.014;2022-08-25T14:03:46;57.47;;;4.93;;
42724;SDS011;28369;44.046;23.014;2022-08-25T14:08:39;48.47;;;5.13;;
42724;SDS011;28369;44.046;23.014;2022-08-25T14:13:59;42.45;;;5.85;;
42724;SDS011;28369;44.046;23.014;2022-08-25T14:16:24;52.35;;;5.63;;
42724;SDS011;28369;44.046;23.014;2022-08-25T14:18:51;50.05;;;5.07;;
42724;SDS011;28369;44.046;23.014;2022-08-25T14:21:20;45.20;;;5.03;;
42724;SDS011;28369;44.046;23.014;2022-08-25T14:23:51;38.17;;;5.70;;
42724;SDS011;28369;44.046;23.014;2022-08-25T14:26:17;47.47;;;6.03;;
42724;SDS011;28369;44.046;23.014;2022-08-25T14:28:43;48.80;;;5.32;;
42724;SDS011;28369;44.046;23.014;2022-08-25T14:31:26;48.88;;;5.05;;
42724;SDS011;28369;44.046;23.014;2022-08-25T14:36:32;42.03;;;5.35;;
42724;SDS011;28369;44.046;23.014;2022-08-25T14:38:59;41.35;;;5.65;;
42724;SDS011;28369;44.046;23.014;2022-08-25T14:41:31;49.50;;;5.47;;
42724;SDS011;28369;44.046;23.014;2022-08-25T14:44:02;44.47;;;5.90;;
42724;SDS011;28369;44.046;23.014;2022-08-25T14:46:30;57.10;;;7.20;;
42724;SDS011;28369;44.046;23.014;2022-08-25T14:49:03;45.42;;;5.25;;
42724;SDS011;28369;44.046;23.014;2022-08-25T14:51:31;44.00;;;5.40;;
42724;SDS011;28369;44.046;23.014;2022-08-25T14:53:58;52.75;;;4.97;;
42724;SDS011;28369;44.046;23.014;2022-08-25T14:56:26;56.60;;;6.18;;
42724;SDS011;28369;44.046;23.014;2022-08-25T14:58:52;52.85;;;6.20;;
42724;SDS011;28369;44.046;23.014;2022-08-25T15:01:18;48.47;;;6.03;;
42724;SDS011;28369;44.046;23.014;2022-08-25T15:03:46;39.58;;;4.90;;
42724;SDS011;28369;44.046;23.014;2022-08-25T15:06:15;43.65;;;5.03;;
42724;SDS011;28369;44.046;23.014;2022-08-25T15:08:41;46.40;;;6.28;;
42724;SDS011;28369;44.046;23.014;2022-08-25T15:11:26;62.10;;;5.60;;
42724;SDS011;28369;44.046;23.014;2022-08-25T15:13:52;55.38;;;5.88;;
42724;SDS011;28369;44.046;23.014;2022-08-25T15:16:26;37.35;;;5.25;;
42724;SDS011;28369;44.046;23.014;2022-08-25T15:18:54;54.95;;;6.00;;
42724;SDS011;28369;44.046;23.014;2022-08-25T15:21:20;38.78;;;5.50;;
42724;SDS011;28369;44.046;23.014;2022-08-25T15:23:46;47.65;;;5.18;;
42724;SDS011;28369;44.046;23.014;2022-08-25T15:26:12;38.47;;;4.97;;
42724;SDS011;28369;44.046;23.014;2022-08-25T15:28:41;51.92;;;5.80;;
42724;SDS011;28369;44.046;23.014;2022-08-25T15:31:09;56.70;;;6.05;;
42724;SDS011;28369;44.046;23.014;2022-08-25T15:33:36;49.53;;;5.78;;
42724;SDS011;28369;44.046;23.014;2022-08-25T15:36:08;40.78;;;5.10;;
42724;SDS011;28369;44.046;23.014;2022-08-25T15:38:38;36.88;;;5.75;;
42724;SDS011;28369;44.046;23.014;2022-08-25T15:41:04;43.88;;;5.65;;
42724;SDS011;28369;44.046;23.014;2022-08-25T15:43:32;40.22;;;5.15;;
42724;SDS011;28369;44.046;23.014;2022-08-25T15:45:58;44.95;;;5.13;;
42724;SDS011;28369;44.046;23.014;2022-08-25T15:48:23;42.75;;;5.57;;
42724;SDS011;28369;44.046;23.014;2022-08-25T15:50:51;53.17;;;6.18;;
42724;SDS011;28369;44.046;23.014;2022-08-25T15:53:24;66.30;;;6.60;;
42724;SDS011;28369;44.046;23.014;2022-08-25T15:55:51;56.60;;;6.25;;
42724;SDS011;28369;44.046;23.014;2022-08-25T15:58:18;38.47;;;5.28;;
42724;SDS011;28369;44.046;23.014;2022-08-25T16:00:44;50.40;;;5.60;;
42724;SDS011;28369;44.046;23.014;2022-08-25T16:03:11;57.78;;;5.95;;
42724;SDS011;28369;44.046;23.014;2022-08-25T16:05:41;49.88;;;4.95;;
42724;SDS011;28369;44.046;23.014;2022-08-25T16:08:07;41.17;;;5.10;;
42724;SDS011;28369;44.046;23.014;2022-08-25T16:10:35;47.78;;;4.88;;
42724;SDS011;28369;44.046;23.014;2022-08-25T16:13:03;45.53;;;6.35;;
42724;SDS011;28369;44.046;23.014;2022-08-25T16:15:29;42.85;;;5.43;;
42724;SDS011;28369;44.046;23.014;2022-08-25T16:17:57;47.28;;;6.82;;
42724;SDS011;28369;44.046;23.014;2022-08-25T16:20:24;52.20;;;6.72;;
42724;SDS011;28369;44.046;23.014;2022-08-25T16:22:50;50.03;;;6.40;;
42724;SDS011;28369;44.046;23.014;2022-08-25T16:25:15;60.08;;;7.05;;
42724;SDS011;28369;44.046;23.014;2022-08-25T16:27:41;49.83;;;5.55;;
42724;SDS011;28369;44.046;23.014;2022-08-25T16:30:08;52.95;;;7.22;;
42724;SDS011;28369;44.046;23.014;2022-08-25T16:32:36;57.28;;;6.28;;
42724;SDS011;28369;44.046;23.014;2022-08-25T16:35:02;49.22;;;5.47;;
42724;SDS011;28369;44.046;23.014;2022-08-25T16:37:28;86.25;;;10.30;;
42724;SDS011;28369;44.046;23.014;2022-08-25T16:40:00;60.47;;;6.90;;
42724;SDS011;28369;44.046;23.014;2022-08-25T16:42:27;56.10;;;7.40;;
42724;SDS011;28369;44.046;23.014;2022-08-25T16:44:53;43.42;;;6.05;;
42724;SDS011;28369;44.046;23.014;2022-08-25T16:47:18;48.22;;;6.80;;
42724;SDS011;28369;44.046;23.014;2022-08-25T16:49:44;51.63;;;6.60;;
42724;SDS011;28369;44.046;23.014;2022-08-25T16:52:10;39.45;;;5.90;;
42724;SDS011;28369;44.046;23.014;2022-08-25T16:54:55;57.60;;;7.18;;
42724;SDS011;28369;44.046;23.014;2022-08-25T16:57:41;53.13;;;6.57;;
42724;SDS011;28369;44.046;23.014;2022-08-25T17:00:19;45.28;;;6.05;;
42724;SDS011;28369;44.046;23.014;2022-08-25T17:02:49;52.20;;;5.70;;